sensor_id;sensor_type;location;lat;lon;timestamp;P1;durP1;ratioP1;P2;durP2;ratioP2
73321;SDS011;61549;37.044;22.128;2023-03-01T00:02:20;25.20;;;11.65;;
73321;SDS011;61549;37.044;22.128;2023-03-01T00:04:47;24.40;;;12.70;;
73321;SDS011;61549;37.044;22.128;2023-03-01T00:07:13;26.88;;;11.32;;
73321;SDS011;61549;37.044;22.128;2023-03-01T00:09:38;24.00;;;12.32;;
73321;SDS011;61549;37.044;22.128;2023-03-01T00:12:05;30.50;;;12.02;;
73321;SDS011;61549;37.044;22.128;2023-03-01T00:14:31;27.17;;;10.38;;
73321;SDS011;61549;37.044;22.128;2023-03-01T00:16:57;27.35;;;10.68;;
73321;SDS011;61549;37.044;22.128;2023-03-01T00:19:23;26.52;;;10.40;;
73321;SDS011;61549;37.044;22.128;2023-03-01T00:21:49;27.10;;;11.00;;
73321;SDS011;61549;37.044;22.128;2023-03-01T00:24:15;31.35;;;11.25;;
73321;SDS011;61549;37.044;22.128;2023-03-01T00:26:41;27.45;;;11.05;;
73321;SDS011;61549;37.044;22.128;2023-03-01T00:29:08;31.67;;;11.25;;
73321;SDS011;61549;37.044;22.128;2023-03-01T00:31:34;30.80;;;10.88;;
73321;SDS011;61549;37.044;22.128;2023-03-01T00:34:01;26.92;;;9.65;;
73321;SDS011;61549;37.044;22.128;2023-03-01T00:36:30;25.98;;;10.25;;
73321;SDS011;61549;37.044;22.128;2023-03-01T00:38:58;26.40;;;10.43;;
73321;SDS011;61549;37.044;22.128;2023-03-01T00:41:24;24.63;;;10.45;;
73321;SDS011;61549;37.044;22.128;2023-03-01T00:43:51;30.08;;;10.35;;
73321;SDS011;61549;37.044;22.128;2023-03-01T00:46:19;25.10;;;10.25;;
73321;SDS011;61549;37.044;22.128;2023-03-01T00:48:47;26.38;;;10.48;;
73321;SDS011;61549;37.044;22.128;2023-03-01T00:51:17;25.35;;;10.68;;
73321;SDS011;61549;37.044;22.128;2023-03-01T00:53:45;30.05;;;10.30;;
73321;SDS011;61549;37.044;22.128;2023-03-01T00:56:12;30.05;;;10.80;;
73321;SDS011;61549;37.044;22.128;2023-03-01T00:58:40;25.08;;;10.40;;
73321;SDS011;61549;37.044;22.128;2023-03-01T01:03:43;24.27;;;10.95;;
73321;SDS011;61549;37.044;22.128;2023-03-01T01:06:23;26.27;;;10.77;;
73321;SDS011;61549;37.044;22.128;2023-03-01T01:08:51;29.13;;;11.10;;
73321;SDS011;61549;37.044;22.128;2023-03-01T01:11:18;32.55;;;10.50;;
73321;SDS011;61549;37.044;22.128;2023-03-01T01:13:46;25.55;;;10.88;;
73321;SDS011;61549;37.044;22.128;2023-03-01T01:16:13;30.30;;;11.50;;
73321;SDS011;61549;37.044;22.128;2023-03-01T01:18:40;29.80;;;11.73;;
73321;SDS011;61549;37.044;22.128;2023-03-01T01:21:08;32.58;;;12.30;;
73321;SDS011;61549;37.044;22.128;2023-03-01T01:23:36;31.13;;;12.18;;
73321;SDS011;61549;37.044;22.128;2023-03-01T01:26:04;28.92;;;11.82;;
73321;SDS011;61549;37.044;22.128;2023-03-01T01:28:34;29.42;;;11.55;;
73321;SDS011;61549;37.044;22.128;2023-03-01T01:31:00;25.17;;;10.63;;
73321;SDS011;61549;37.044;22.128;2023-03-01T01:33:26;28.85;;;11.32;;
73321;SDS011;61549;37.044;22.128;2023-03-01T01:35:52;26.67;;;10.85;;
73321;SDS011;61549;37.044;22.128;2023-03-01T01:38:18;28.77;;;11.23;;
73321;SDS011;61549;37.044;22.128;2023-03-01T01:40:45;28.92;;;10.43;;
73321;SDS011;61549;37.044;22.128;2023-03-01T01:43:19;29.83;;;11.48;;
73321;SDS011;61549;37.044;22.128;2023-03-01T01:45:45;31.40;;;10.70;;
73321;SDS011;61549;37.044;22.128;2023-03-01T01:48:12;21.80;;;10.23;;
73321;SDS011;61549;37.044;22.128;2023-03-01T01:50:41;25.83;;;10.32;;
73321;SDS011;61549;37.044;22.128;2023-03-01T01:53:11;25.05;;;10.35;;
73321;SDS011;61549;37.044;22.128;2023-03-01T01:55:41;22.50;;;10.15;;
73321;SDS011;61549;37.044;22.128;2023-03-01T01:58:11;29.67;;;11.00;;
73321;SDS011;61549;37.044;22.128;2023-03-01T02:00:40;31.08;;;10.95;;
73321;SDS011;61549;37.044;22.128;2023-03-01T02:03:08;26.85;;;11.75;;
73321;SDS011;61549;37.044;22.128;2023-03-01T02:08:23;31.08;;;10.85;;
73321;SDS011;61549;37.044;22.128;2023-03-01T02:11:09;22.83;;;10.43;;
73321;SDS011;61549;37.044;22.128;2023-03-01T02:13:36;27.23;;;10.48;;
73321;SDS011;61549;37.044;22.128;2023-03-01T02:16:03;23.75;;;10.02;;
73321;SDS011;61549;37.044;22.128;2023-03-01T02:18:30;28.27;;;10.55;;
73321;SDS011;61549;37.044;22.128;2023-03-01T02:23:30;29.15;;;11.05;;
73321;SDS011;61549;37.044;22.128;2023-03-01T02:26:01;28.40;;;10.95;;
73321;SDS011;61549;37.044;22.128;2023-03-01T02:28:47;28.13;;;10.63;;
73321;SDS011;61549;37.044;22.128;2023-03-01T02:31:14;28.55;;;10.63;;
73321;SDS011;61549;37.044;22.128;2023-03-01T02:34:02;23.75;;;9.93;;
73321;SDS011;61549;37.044;22.128;2023-03-01T02:36:39;29.00;;;10.35;;
73321;SDS011;61549;37.044;22.128;2023-03-01T02:42:24;26.13;;;10.73;;
73321;SDS011;61549;37.044;22.128;2023-03-01T02:44:55;28.85;;;10.77;;
73321;SDS011;61549;37.044;22.128;2023-03-01T02:47:21;27.13;;;10.40;;
73321;SDS011;61549;37.044;22.128;2023-03-01T02:49:47;26.70;;;10.73;;
73321;SDS011;61549;37.044;22.128;2023-03-01T02:55:20;33.08;;;11.02;;
73321;SDS011;61549;37.044;22.128;2023-03-01T02:57:46;30.35;;;11.07;;
73321;SDS011;61549;37.044;22.128;2023-03-01T03:00:21;29.58;;;10.25;;
73321;SDS011;61549;37.044;22.128;2023-03-01T03:02:51;27.65;;;10.85;;
73321;SDS011;61549;37.044;22.128;2023-03-01T03:05:22;33.92;;;11.55;;
73321;SDS011;61549;37.044;22.128;2023-03-01T03:07:50;26.10;;;10.95;;
73321;SDS011;61549;37.044;22.128;2023-03-01T03:10:20;29.00;;;11.38;;
73321;SDS011;61549;37.044;22.128;2023-03-01T03:12:51;26.80;;;10.95;;
73321;SDS011;61549;37.044;22.128;2023-03-01T03:15:20;26.42;;;11.65;;
73321;SDS011;61549;37.044;22.128;2023-03-01T03:17:47;29.05;;;11.25;;
73321;SDS011;61549;37.044;22.128;2023-03-01T03:20:16;27.63;;;10.63;;
73321;SDS011;61549;37.044;22.128;2023-03-01T03:22:50;24.40;;;11.98;;
73321;SDS011;61549;37.044;22.128;2023-03-01T03:25:17;32.55;;;12.00;;
73321;SDS011;61549;37.044;22.128;2023-03-01T03:28:03;26.65;;;11.13;;
73321;SDS011;61549;37.044;22.128;2023-03-01T03:30:34;27.48;;;11.77;;
73321;SDS011;61549;37.044;22.128;2023-03-01T03:33:01;29.10;;;11.93;;
73321;SDS011;61549;37.044;22.128;2023-03-01T03:35:32;32.00;;;11.95;;
73321;SDS011;61549;37.044;22.128;2023-03-01T03:38:05;25.85;;;12.40;;
73321;SDS011;61549;37.044;22.128;2023-03-01T03:40:41;34.25;;;12.63;;
73321;SDS011;61549;37.044;22.128;2023-03-01T03:43:18;28.27;;;12.57;;
73321;SDS011;61549;37.044;22.128;2023-03-01T03:45:46;31.98;;;12.60;;
73321;SDS011;61549;37.044;22.128;2023-03-01T03:48:13;25.83;;;11.52;;
73321;SDS011;61549;37.044;22.128;2023-03-01T03:50:40;28.20;;;11.98;;
73321;SDS011;61549;37.044;22.128;2023-03-01T03:53:07;28.58;;;11.50;;
73321;SDS011;61549;37.044;22.128;2023-03-01T03:55:35;25.65;;;11.77;;
73321;SDS011;61549;37.044;22.128;2023-03-01T03:58:04;25.45;;;11.68;;
73321;SDS011;61549;37.044;22.128;2023-03-01T04:00:44;27.10;;;12.50;;
73321;SDS011;61549;37.044;22.128;2023-03-01T04:03:12;30.90;;;11.88;;
73321;SDS011;61549;37.044;22.128;2023-03-01T04:05:39;28.70;;;12.38;;
73321;SDS011;61549;37.044;22.128;2023-03-01T04:08:06;33.90;;;12.27;;
73321;SDS011;61549;37.044;22.128;2023-03-01T04:10:56;26.00;;;11.63;;
73321;SDS011;61549;37.044;22.128;2023-03-01T04:13:22;32.50;;;12.63;;
73321;SDS011;61549;37.044;22.128;2023-03-01T04:15:50;34.95;;;13.35;;
73321;SDS011;61549;37.044;22.128;2023-03-01T04:18:18;30.35;;;12.45;;
73321;SDS011;61549;37.044;22.128;2023-03-01T04:20:45;32.03;;;12.95;;
73321;SDS011;61549;37.044;22.128;2023-03-01T04:23:13;30.95;;;12.40;;
73321;SDS011;61549;37.044;22.128;2023-03-01T04:25:49;30.83;;;12.68;;
73321;SDS011;61549;37.044;22.128;2023-03-01T04:28:27;32.28;;;12.88;;
73321;SDS011;61549;37.044;22.128;2023-03-01T04:33:22;37.22;;;13.50;;
73321;SDS011;61549;37.044;22.128;2023-03-01T04:35:48;26.38;;;13.23;;
73321;SDS011;61549;37.044;22.128;2023-03-01T04:38:15;33.15;;;13.30;;
73321;SDS011;61549;37.044;22.128;2023-03-01T04:40:41;30.95;;;13.05;;
73321;SDS011;61549;37.044;22.128;2023-03-01T04:43:08;34.92;;;13.23;;
73321;SDS011;61549;37.044;22.128;2023-03-01T04:45:35;38.88;;;14.13;;
73321;SDS011;61549;37.044;22.128;2023-03-01T04:48:01;29.08;;;13.18;;
73321;SDS011;61549;37.044;22.128;2023-03-01T04:50:28;34.45;;;13.90;;
73321;SDS011;61549;37.044;22.128;2023-03-01T04:52:54;31.83;;;12.88;;
73321;SDS011;61549;37.044;22.128;2023-03-01T04:55:24;32.75;;;12.40;;
73321;SDS011;61549;37.044;22.128;2023-03-01T04:57:51;31.13;;;12.38;;
73321;SDS011;61549;37.044;22.128;2023-03-01T05:00:18;30.33;;;12.48;;
73321;SDS011;61549;37.044;22.128;2023-03-01T05:05:14;29.75;;;12.38;;
73321;SDS011;61549;37.044;22.128;2023-03-01T05:07:40;31.98;;;12.35;;
73321;SDS011;61549;37.044;22.128;2023-03-01T05:10:07;27.98;;;12.32;;
73321;SDS011;61549;37.044;22.128;2023-03-01T05:12:33;35.05;;;13.48;;
73321;SDS011;61549;37.044;22.128;2023-03-01T05:14:59;28.05;;;12.75;;
73321;SDS011;61549;37.044;22.128;2023-03-01T05:17:24;25.98;;;12.20;;
73321;SDS011;61549;37.044;22.128;2023-03-01T05:19:50;28.58;;;12.27;;
73321;SDS011;61549;37.044;22.128;2023-03-01T05:22:16;35.85;;;13.40;;
73321;SDS011;61549;37.044;22.128;2023-03-01T05:24:42;34.45;;;12.80;;
73321;SDS011;61549;37.044;22.128;2023-03-01T05:27:08;30.48;;;12.75;;
73321;SDS011;61549;37.044;22.128;2023-03-01T05:29:34;39.28;;;13.95;;
73321;SDS011;61549;37.044;22.128;2023-03-01T05:32:00;34.78;;;12.75;;
73321;SDS011;61549;37.044;22.128;2023-03-01T05:34:29;33.85;;;12.88;;
73321;SDS011;61549;37.044;22.128;2023-03-01T05:36:56;26.25;;;12.05;;
73321;SDS011;61549;37.044;22.128;2023-03-01T05:39:23;31.63;;;13.05;;
73321;SDS011;61549;37.044;22.128;2023-03-01T05:41:54;33.78;;;13.77;;
73321;SDS011;61549;37.044;22.128;2023-03-01T05:44:30;30.52;;;13.43;;
73321;SDS011;61549;37.044;22.128;2023-03-01T05:46:57;32.35;;;12.57;;
73321;SDS011;61549;37.044;22.128;2023-03-01T05:49:23;30.25;;;12.27;;
73321;SDS011;61549;37.044;22.128;2023-03-01T05:51:50;29.13;;;13.23;;
73321;SDS011;61549;37.044;22.128;2023-03-01T05:54:17;30.98;;;12.73;;
73321;SDS011;61549;37.044;22.128;2023-03-01T05:56:44;29.20;;;12.88;;
73321;SDS011;61549;37.044;22.128;2023-03-01T05:59:10;25.85;;;13.00;;
73321;SDS011;61549;37.044;22.128;2023-03-01T06:01:36;32.88;;;13.45;;
73321;SDS011;61549;37.044;22.128;2023-03-01T06:04:03;33.03;;;12.20;;
73321;SDS011;61549;37.044;22.128;2023-03-01T06:06:29;33.13;;;12.48;;
73321;SDS011;61549;37.044;22.128;2023-03-01T06:08:59;32.25;;;12.68;;
73321;SDS011;61549;37.044;22.128;2023-03-01T06:11:24;25.48;;;12.40;;
73321;SDS011;61549;37.044;22.128;2023-03-01T06:13:50;30.02;;;12.77;;
73321;SDS011;61549;37.044;22.128;2023-03-01T06:16:16;30.80;;;12.90;;
73321;SDS011;61549;37.044;22.128;2023-03-01T06:18:42;32.15;;;12.98;;
73321;SDS011;61549;37.044;22.128;2023-03-01T06:21:08;35.72;;;14.15;;
73321;SDS011;61549;37.044;22.128;2023-03-01T06:23:34;35.50;;;13.05;;
73321;SDS011;61549;37.044;22.128;2023-03-01T06:26:00;35.30;;;14.13;;
73321;SDS011;61549;37.044;22.128;2023-03-01T06:28:31;41.30;;;13.82;;
73321;SDS011;61549;37.044;22.128;2023-03-01T06:30:57;34.92;;;14.07;;
73321;SDS011;61549;37.044;22.128;2023-03-01T06:33:22;31.85;;;14.25;;
73321;SDS011;61549;37.044;22.128;2023-03-01T06:35:49;38.33;;;14.13;;
73321;SDS011;61549;37.044;22.128;2023-03-01T06:38:16;26.92;;;13.02;;
73321;SDS011;61549;37.044;22.128;2023-03-01T06:40:45;35.42;;;14.02;;
73321;SDS011;61549;37.044;22.128;2023-03-01T06:43:16;34.60;;;13.90;;
73321;SDS011;61549;37.044;22.128;2023-03-01T06:45:42;41.88;;;14.07;;
73321;SDS011;61549;37.044;22.128;2023-03-01T06:48:08;27.02;;;13.38;;
73321;SDS011;61549;37.044;22.128;2023-03-01T06:50:34;29.90;;;13.35;;
73321;SDS011;61549;37.044;22.128;2023-03-01T06:53:00;37.67;;;13.30;;
73321;SDS011;61549;37.044;22.128;2023-03-01T06:55:26;30.50;;;12.35;;
73321;SDS011;61549;37.044;22.128;2023-03-01T06:57:59;40.20;;;13.93;;
73321;SDS011;61549;37.044;22.128;2023-03-01T07:00:26;35.45;;;14.63;;
73321;SDS011;61549;37.044;22.128;2023-03-01T07:02:53;31.55;;;15.00;;
73321;SDS011;61549;37.044;22.128;2023-03-01T07:05:19;31.55;;;14.77;;
73321;SDS011;61549;37.044;22.128;2023-03-01T07:07:44;40.95;;;16.42;;
73321;SDS011;61549;37.044;22.128;2023-03-01T07:10:10;36.00;;;19.20;;
73321;SDS011;61549;37.044;22.128;2023-03-01T07:12:37;39.92;;;16.40;;
73321;SDS011;61549;37.044;22.128;2023-03-01T07:15:03;35.40;;;13.48;;
73321;SDS011;61549;37.044;22.128;2023-03-01T07:17:29;35.85;;;16.98;;
73321;SDS011;61549;37.044;22.128;2023-03-01T07:19:56;37.45;;;15.88;;
73321;SDS011;61549;37.044;22.128;2023-03-01T07:22:22;36.63;;;15.48;;
73321;SDS011;61549;37.044;22.128;2023-03-01T07:24:48;37.60;;;17.95;;
73321;SDS011;61549;37.044;22.128;2023-03-01T07:27:14;48.95;;;23.70;;
73321;SDS011;61549;37.044;22.128;2023-03-01T07:29:45;61.97;;;33.55;;
73321;SDS011;61549;37.044;22.128;2023-03-01T07:32:21;81.32;;;44.17;;
73321;SDS011;61549;37.044;22.128;2023-03-01T07:38:09;56.70;;;29.73;;
73321;SDS011;61549;37.044;22.128;2023-03-01T07:40:35;45.17;;;23.88;;
73321;SDS011;61549;37.044;22.128;2023-03-01T07:43:01;54.28;;;27.05;;
73321;SDS011;61549;37.044;22.128;2023-03-01T07:45:27;57.42;;;29.67;;
73321;SDS011;61549;37.044;22.128;2023-03-01T07:47:54;51.17;;;27.15;;
73321;SDS011;61549;37.044;22.128;2023-03-01T07:50:22;35.47;;;18.52;;
73321;SDS011;61549;37.044;22.128;2023-03-01T07:52:50;31.50;;;15.50;;
73321;SDS011;61549;37.044;22.128;2023-03-01T07:55:17;39.20;;;16.88;;
73321;SDS011;61549;37.044;22.128;2023-03-01T07:57:44;31.75;;;18.35;;
73321;SDS011;61549;37.044;22.128;2023-03-01T08:00:11;74.15;;;39.88;;
73321;SDS011;61549;37.044;22.128;2023-03-01T08:02:37;60.10;;;33.60;;
73321;SDS011;61549;37.044;22.128;2023-03-01T08:10:14;50.58;;;26.90;;
73321;SDS011;61549;37.044;22.128;2023-03-01T08:12:41;45.55;;;26.05;;
73321;SDS011;61549;37.044;22.128;2023-03-01T08:15:07;53.95;;;28.00;;
73321;SDS011;61549;37.044;22.128;2023-03-01T08:17:33;62.60;;;27.05;;
73321;SDS011;61549;37.044;22.128;2023-03-01T08:19:59;60.40;;;29.40;;
73321;SDS011;61549;37.044;22.128;2023-03-01T08:22:25;53.33;;;28.88;;
73321;SDS011;61549;37.044;22.128;2023-03-01T08:24:51;52.97;;;28.40;;
73321;SDS011;61549;37.044;22.128;2023-03-01T08:27:17;53.70;;;27.35;;
73321;SDS011;61549;37.044;22.128;2023-03-01T08:29:43;47.13;;;24.77;;
73321;SDS011;61549;37.044;22.128;2023-03-01T08:32:08;44.22;;;24.90;;
73321;SDS011;61549;37.044;22.128;2023-03-01T08:34:34;40.90;;;21.20;;
73321;SDS011;61549;37.044;22.128;2023-03-01T08:37:01;48.30;;;20.75;;
73321;SDS011;61549;37.044;22.128;2023-03-01T08:39:27;47.63;;;20.65;;
73321;SDS011;61549;37.044;22.128;2023-03-01T08:41:53;40.45;;;21.25;;
73321;SDS011;61549;37.044;22.128;2023-03-01T08:44:19;44.20;;;21.45;;
73321;SDS011;61549;37.044;22.128;2023-03-01T08:46:46;41.17;;;21.38;;
73321;SDS011;61549;37.044;22.128;2023-03-01T08:52:34;51.15;;;21.30;;
73321;SDS011;61549;37.044;22.128;2023-03-01T08:55:00;49.25;;;20.05;;
73321;SDS011;61549;37.044;22.128;2023-03-01T08:57:26;47.20;;;20.33;;
73321;SDS011;61549;37.044;22.128;2023-03-01T08:59:52;45.33;;;20.20;;
73321;SDS011;61549;37.044;22.128;2023-03-01T09:02:21;39.47;;;20.50;;
73321;SDS011;61549;37.044;22.128;2023-03-01T09:04:47;44.35;;;20.25;;
73321;SDS011;61549;37.044;22.128;2023-03-01T09:07:13;43.25;;;20.00;;
73321;SDS011;61549;37.044;22.128;2023-03-01T09:09:38;34.33;;;18.10;;
73321;SDS011;61549;37.044;22.128;2023-03-01T09:12:04;37.00;;;18.67;;
73321;SDS011;61549;37.044;22.128;2023-03-01T09:14:31;36.05;;;17.35;;
73321;SDS011;61549;37.044;22.128;2023-03-01T09:16:57;34.83;;;17.20;;
73321;SDS011;61549;37.044;22.128;2023-03-01T09:19:23;47.10;;;18.88;;
73321;SDS011;61549;37.044;22.128;2023-03-01T09:21:49;42.78;;;17.85;;
73321;SDS011;61549;37.044;22.128;2023-03-01T09:24:18;33.53;;;17.10;;
73321;SDS011;61549;37.044;22.128;2023-03-01T09:26:46;33.60;;;16.08;;
73321;SDS011;61549;37.044;22.128;2023-03-01T09:29:12;35.50;;;15.90;;
73321;SDS011;61549;37.044;22.128;2023-03-01T09:31:39;34.03;;;15.13;;
73321;SDS011;61549;37.044;22.128;2023-03-01T09:34:06;38.70;;;14.98;;
73321;SDS011;61549;37.044;22.128;2023-03-01T09:36:32;29.35;;;13.82;;
73321;SDS011;61549;37.044;22.128;2023-03-01T09:38:58;29.30;;;14.57;;
73321;SDS011;61549;37.044;22.128;2023-03-01T09:44:22;37.72;;;15.80;;
73321;SDS011;61549;37.044;22.128;2023-03-01T09:47:02;36.10;;;14.60;;
73321;SDS011;61549;37.044;22.128;2023-03-01T09:49:33;30.40;;;13.88;;
73321;SDS011;61549;37.044;22.128;2023-03-01T09:52:06;38.83;;;15.25;;
73321;SDS011;61549;37.044;22.128;2023-03-01T09:54:46;32.05;;;14.38;;
73321;SDS011;61549;37.044;22.128;2023-03-01T09:57:19;36.08;;;14.95;;
73321;SDS011;61549;37.044;22.128;2023-03-01T10:02:48;38.70;;;14.90;;
73321;SDS011;61549;37.044;22.128;2023-03-01T10:08:23;35.00;;;14.15;;
73321;SDS011;61549;37.044;22.128;2023-03-01T10:10:51;26.40;;;12.98;;
73321;SDS011;61549;37.044;22.128;2023-03-01T10:15:57;29.70;;;12.95;;
73321;SDS011;61549;37.044;22.128;2023-03-01T10:18:29;26.33;;;12.18;;
73321;SDS011;61549;37.044;22.128;2023-03-01T10:21:03;28.17;;;12.60;;
73321;SDS011;61549;37.044;22.128;2023-03-01T10:23:40;32.58;;;13.98;;
73321;SDS011;61549;37.044;22.128;2023-03-01T10:26:17;28.90;;;13.00;;
73321;SDS011;61549;37.044;22.128;2023-03-01T10:29:06;38.42;;;13.80;;
73321;SDS011;61549;37.044;22.128;2023-03-01T10:31:52;34.10;;;12.48;;
73321;SDS011;61549;37.044;22.128;2023-03-01T10:36:51;30.70;;;11.93;;
73321;SDS011;61549;37.044;22.128;2023-03-01T10:39:22;31.13;;;12.10;;
73321;SDS011;61549;37.044;22.128;2023-03-01T10:42:05;29.08;;;12.68;;
73321;SDS011;61549;37.044;22.128;2023-03-01T10:44:45;30.08;;;12.48;;
73321;SDS011;61549;37.044;22.128;2023-03-01T10:47:26;31.85;;;12.50;;
73321;SDS011;61549;37.044;22.128;2023-03-01T10:50:04;29.25;;;11.93;;
73321;SDS011;61549;37.044;22.128;2023-03-01T10:52:42;29.58;;;12.10;;
73321;SDS011;61549;37.044;22.128;2023-03-01T10:55:35;25.27;;;12.18;;
73321;SDS011;61549;37.044;22.128;2023-03-01T10:58:19;43.05;;;13.40;;
73321;SDS011;61549;37.044;22.128;2023-03-01T11:01:06;33.03;;;12.00;;
73321;SDS011;61549;37.044;22.128;2023-03-01T11:03:41;28.75;;;12.73;;
73321;SDS011;61549;37.044;22.128;2023-03-01T11:08:45;30.83;;;12.38;;
73321;SDS011;61549;37.044;22.128;2023-03-01T11:11:23;30.00;;;12.57;;
73321;SDS011;61549;37.044;22.128;2023-03-01T11:16:45;30.67;;;11.95;;
73321;SDS011;61549;37.044;22.128;2023-03-01T11:19:15;27.20;;;11.75;;
73321;SDS011;61549;37.044;22.128;2023-03-01T11:22:02;34.47;;;12.85;;
73321;SDS011;61549;37.044;22.128;2023-03-01T11:24:48;30.60;;;11.73;;
73321;SDS011;61549;37.044;22.128;2023-03-01T11:27:25;29.48;;;12.82;;
73321;SDS011;61549;37.044;22.128;2023-03-01T11:30:12;24.38;;;11.70;;
73321;SDS011;61549;37.044;22.128;2023-03-01T11:35:42;33.20;;;13.18;;
73321;SDS011;61549;37.044;22.128;2023-03-01T11:38:32;30.52;;;12.05;;
73321;SDS011;61549;37.044;22.128;2023-03-01T11:41:03;30.15;;;11.43;;
73321;SDS011;61549;37.044;22.128;2023-03-01T11:44:05;32.85;;;11.82;;
73321;SDS011;61549;37.044;22.128;2023-03-01T12:11:48;34.00;;;12.48;;
73321;SDS011;61549;37.044;22.128;2023-03-01T12:17:03;31.10;;;12.68;;
73321;SDS011;61549;37.044;22.128;2023-03-01T12:19:50;41.10;;;12.75;;
73321;SDS011;61549;37.044;22.128;2023-03-01T12:22:44;31.58;;;12.52;;
73321;SDS011;61549;37.044;22.128;2023-03-01T12:37:25;26.40;;;11.02;;
73321;SDS011;61549;37.044;22.128;2023-03-01T12:40:27;28.45;;;11.05;;
73321;SDS011;61549;37.044;22.128;2023-03-01T12:51:17;28.20;;;10.25;;
73321;SDS011;61549;37.044;22.128;2023-03-01T12:53:49;28.20;;;10.52;;
73321;SDS011;61549;37.044;22.128;2023-03-01T12:56:19;29.42;;;11.35;;
73321;SDS011;61549;37.044;22.128;2023-03-01T13:04:45;33.08;;;10.98;;
73321;SDS011;61549;37.044;22.128;2023-03-01T13:07:40;35.67;;;11.45;;
73321;SDS011;61549;37.044;22.128;2023-03-01T13:10:36;30.10;;;12.18;;
73321;SDS011;61549;37.044;22.128;2023-03-01T13:13:19;27.63;;;11.23;;
73321;SDS011;61549;37.044;22.128;2023-03-01T13:15:45;38.75;;;11.70;;
73321;SDS011;61549;37.044;22.128;2023-03-01T13:20:47;32.45;;;11.00;;
73321;SDS011;61549;37.044;22.128;2023-03-01T13:49:41;26.98;;;10.73;;
73321;SDS011;61549;37.044;22.128;2023-03-01T13:54:51;27.25;;;10.63;;
73321;SDS011;61549;37.044;22.128;2023-03-01T13:57:24;36.28;;;11.55;;
73321;SDS011;61549;37.044;22.128;2023-03-01T13:59:53;29.83;;;11.52;;
73321;SDS011;61549;37.044;22.128;2023-03-01T14:02:23;22.70;;;10.50;;
73321;SDS011;61549;37.044;22.128;2023-03-01T14:05:01;24.08;;;9.93;;
73321;SDS011;61549;37.044;22.128;2023-03-01T14:07:28;30.48;;;10.20;;
73321;SDS011;61549;37.044;22.128;2023-03-01T14:10:02;30.38;;;10.35;;
73321;SDS011;61549;37.044;22.128;2023-03-01T14:12:35;29.08;;;11.13;;
73321;SDS011;61549;37.044;22.128;2023-03-01T14:20:24;23.40;;;10.85;;
73321;SDS011;61549;37.044;22.128;2023-03-01T14:22:53;29.85;;;10.57;;
73321;SDS011;61549;37.044;22.128;2023-03-01T14:25:33;20.33;;;9.27;;
73321;SDS011;61549;37.044;22.128;2023-03-01T14:28:04;37.65;;;11.73;;
73321;SDS011;61549;37.044;22.128;2023-03-01T14:30:50;24.90;;;10.55;;
73321;SDS011;61549;37.044;22.128;2023-03-01T14:33:23;41.08;;;11.60;;
73321;SDS011;61549;37.044;22.128;2023-03-01T14:35:59;36.63;;;11.18;;
73321;SDS011;61549;37.044;22.128;2023-03-01T14:38:37;24.15;;;11.02;;
73321;SDS011;61549;37.044;22.128;2023-03-01T14:41:21;28.08;;;11.55;;
73321;SDS011;61549;37.044;22.128;2023-03-01T14:43:53;33.10;;;11.55;;
73321;SDS011;61549;37.044;22.128;2023-03-01T14:46:25;29.90;;;11.85;;
73321;SDS011;61549;37.044;22.128;2023-03-01T14:49:01;40.65;;;12.48;;
73321;SDS011;61549;37.044;22.128;2023-03-01T14:51:29;35.90;;;11.65;;
73321;SDS011;61549;37.044;22.128;2023-03-01T14:53:55;27.52;;;11.60;;
73321;SDS011;61549;37.044;22.128;2023-03-01T14:56:21;29.75;;;11.13;;
73321;SDS011;61549;37.044;22.128;2023-03-01T14:58:51;28.35;;;13.23;;
73321;SDS011;61549;37.044;22.128;2023-03-01T15:01:18;35.28;;;12.60;;
73321;SDS011;61549;37.044;22.128;2023-03-01T15:03:48;36.45;;;13.30;;
73321;SDS011;61549;37.044;22.128;2023-03-01T15:06:17;33.08;;;12.85;;
73321;SDS011;61549;37.044;22.128;2023-03-01T15:08:49;31.95;;;12.32;;
73321;SDS011;61549;37.044;22.128;2023-03-01T15:11:19;32.05;;;12.95;;
73321;SDS011;61549;37.044;22.128;2023-03-01T15:13:49;29.23;;;12.43;;
73321;SDS011;61549;37.044;22.128;2023-03-01T15:16:17;34.05;;;13.15;;
73321;SDS011;61549;37.044;22.128;2023-03-01T15:18:56;38.67;;;14.10;;
73321;SDS011;61549;37.044;22.128;2023-03-01T15:21:34;29.13;;;13.30;;
73321;SDS011;61549;37.044;22.128;2023-03-01T15:26:44;31.73;;;13.38;;
73321;SDS011;61549;37.044;22.128;2023-03-01T15:29:20;42.17;;;13.88;;
73321;SDS011;61549;37.044;22.128;2023-03-01T15:31:58;36.53;;;13.27;;
73321;SDS011;61549;37.044;22.128;2023-03-01T15:34:37;29.95;;;12.80;;
73321;SDS011;61549;37.044;22.128;2023-03-01T15:37:05;36.60;;;13.88;;
73321;SDS011;61549;37.044;22.128;2023-03-01T15:39:53;43.70;;;14.18;;
73321;SDS011;61549;37.044;22.128;2023-03-01T15:45:19;32.22;;;14.77;;
73321;SDS011;61549;37.044;22.128;2023-03-01T15:47:47;35.55;;;14.80;;
73321;SDS011;61549;37.044;22.128;2023-03-01T15:50:28;32.05;;;12.93;;
73321;SDS011;61549;37.044;22.128;2023-03-01T15:53:10;40.20;;;13.40;;
73321;SDS011;61549;37.044;22.128;2023-03-01T15:56:45;32.70;;;14.15;;
73321;SDS011;61549;37.044;22.128;2023-03-01T15:59:11;37.00;;;14.60;;
73321;SDS011;61549;37.044;22.128;2023-03-01T16:01:40;37.42;;;15.07;;
73321;SDS011;61549;37.044;22.128;2023-03-01T16:04:08;37.97;;;14.93;;
73321;SDS011;61549;37.044;22.128;2023-03-01T16:06:37;36.28;;;15.15;;
73321;SDS011;61549;37.044;22.128;2023-03-01T16:09:04;33.80;;;16.33;;
73321;SDS011;61549;37.044;22.128;2023-03-01T16:11:30;35.38;;;16.10;;
73321;SDS011;61549;37.044;22.128;2023-03-01T16:13:57;38.83;;;16.23;;
73321;SDS011;61549;37.044;22.128;2023-03-01T16:16:23;41.25;;;16.77;;
73321;SDS011;61549;37.044;22.128;2023-03-01T16:18:49;37.20;;;16.85;;
73321;SDS011;61549;37.044;22.128;2023-03-01T16:21:20;33.30;;;17.50;;
73321;SDS011;61549;37.044;22.128;2023-03-01T16:23:48;37.90;;;17.30;;
73321;SDS011;61549;37.044;22.128;2023-03-01T16:26:14;38.65;;;16.98;;
73321;SDS011;61549;37.044;22.128;2023-03-01T16:28:41;39.80;;;17.95;;
73321;SDS011;61549;37.044;22.128;2023-03-01T16:31:08;46.40;;;18.90;;
73321;SDS011;61549;37.044;22.128;2023-03-01T16:33:34;45.30;;;20.63;;
73321;SDS011;61549;37.044;22.128;2023-03-01T16:36:05;48.00;;;21.15;;
73321;SDS011;61549;37.044;22.128;2023-03-01T16:38:37;41.63;;;19.02;;
73321;SDS011;61549;37.044;22.128;2023-03-01T16:41:04;41.63;;;19.95;;
73321;SDS011;61549;37.044;22.128;2023-03-01T16:43:30;44.83;;;20.10;;
73321;SDS011;61549;37.044;22.128;2023-03-01T16:45:56;45.63;;;21.02;;
73321;SDS011;61549;37.044;22.128;2023-03-01T16:48:24;69.38;;;35.08;;
73321;SDS011;61549;37.044;22.128;2023-03-01T16:50:59;83.05;;;43.70;;
73321;SDS011;61549;37.044;22.128;2023-03-01T16:53:26;46.33;;;23.83;;
73321;SDS011;61549;37.044;22.128;2023-03-01T16:55:53;42.78;;;23.70;;
73321;SDS011;61549;37.044;22.128;2023-03-01T16:58:23;52.05;;;26.60;;